Time;durP1;ratioP1;P1;durP2;ratioP2;P2;SDS_P1;SDS_P2;PMS_P1;PMS_P2;Temp;Humidity;BMP_temperature;BMP_pressure;BME280_temperature;BME280_humidity;BME280_pressure;Samples;Min_cycle;Max_cycle;Signal;HPM_P1;HPM_P2
2022/04/11 00:00:48;;;;;;;11.95;7.10;;;;;;;;;;4999397;28;20068;-81
2022/04/11 00:03:15;;;;;;;11.18;6.40;;;;;;;;;;4998398;28;20051;-81
2022/04/11 00:05:42;;;;;;;10.70;7.40;;;;;;;;;;4999338;28;20054;-81
2022/04/11 00:08:10;;;;;;;10.90;6.82;;;;;;;;;;4998759;28;20081;-82
2022/04/11 00:10:37;;;;;;;10.63;6.57;;;;;;;;;;4998489;28;20047;-81
2022/04/11 00:13:04;;;;;;;10.43;6.40;;;;;;;;;;4998926;28;20050;-81
2022/04/11 00:15:33;;;;;;;10.38;6.22;;;;;;;;;;5000255;28;20058;-81
2022/04/11 00:18:01;;;;;;;9.30;5.63;;;;;;;;;;4998128;28;20050;-81
2022/04/11 00:20:28;;;;;;;9.93;6.07;;;;;;;;;;4998206;28;20490;-82
2022/04/11 00:22:55;;;;;;;10.27;6.32;;;;;;;;;;4998002;28;20080;-82
2022/04/11 00:25:24;;;;;;;9.98;5.85;;;;;;;;;;4997788;28;20097;-81
2022/04/11 00:27:52;;;;;;;10.05;5.85;;;;;;;;;;5018053;28;20137;-81
2022/04/11 00:30:19;;;;;;;12.35;6.00;;;;;;;;;;5016481;28;20050;-81
2022/04/11 00:32:46;;;;;;;9.80;5.35;;;;;;;;;;4996871;28;20448;-82
2022/04/11 00:35:13;;;;;;;8.57;5.88;;;;;;;;;;4997358;28;20444;-82
2022/04/11 00:37:41;;;;;;;7.65;4.93;;;;;;;;;;4997692;28;20061;-81
2022/04/11 00:40:09;;;;;;;10.85;5.82;;;;;;;;;;4997705;28;20046;-81
2022/04/11 00:42:38;;;;;;;9.15;5.60;;;;;;;;;;4996676;28;20058;-81
2022/04/11 00:45:06;;;;;;;9.25;5.35;;;;;;;;;;4996541;28;20126;-81
2022/04/11 00:47:33;;;;;;;10.38;5.78;;;;;;;;;;4997206;28;20449;-80
2022/04/11 00:50:03;;;;;;;9.18;5.22;;;;;;;;;;4996804;28;20093;-80
2022/04/11 00:52:32;;;;;;;8.85;5.03;;;;;;;;;;5007985;28;20038;-81
2022/04/11 00:54:59;;;;;;;6.85;4.95;;;;;;;;;;5018786;28;20038;-80
2022/04/11 00:57:27;;;;;;;9.38;5.53;;;;;;;;;;5018842;28;20038;-80
2022/04/11 00:59:55;;;;;;;8.27;4.53;;;;;;;;;;5018543;28;20065;-81
2022/04/11 01:02:22;;;;;;;8.30;4.70;;;;;;;;;;5002753;28;20054;-81
2022/04/11 01:04:49;;;;;;;7.78;4.82;;;;;;;;;;4995459;28;20476;-81
2022/04/11 01:07:16;;;;;;;7.40;4.68;;;;;;;;;;4995212;28;20046;-81
2022/04/11 01:09:43;;;;;;;7.63;4.90;;;;;;;;;;4995345;28;20054;-81
2022/04/11 01:12:11;;;;;;;6.82;4.35;;;;;;;;;;4994877;28;20082;-82
2022/04/11 01:14:38;;;;;;;7.30;4.60;;;;;;;;;;4995447;28;20129;-81
2022/04/11 01:17:06;;;;;;;9.15;5.28;;;;;;;;;;4994676;28;20061;-82
2022/04/11 01:19:33;;;;;;;8.55;5.15;;;;;;;;;;4995239;28;20046;-81
2022/04/11 01:22:01;;;;;;;9.27;4.40;;;;;;;;;;4997971;28;20043;-82
2022/04/11 01:24:30;;;;;;;6.35;4.55;;;;;;;;;;5004715;28;20061;-81
2022/04/11 01:26:57;;;;;;;8.23;4.97;;;;;;;;;;5004167;28;20130;-81
2022/04/11 01:29:23;;;;;;;7.47;5.25;;;;;;;;;;5005726;28;20046;-81
2022/04/11 01:31:50;;;;;;;8.30;5.07;;;;;;;;;;4998166;28;20062;-82
2022/04/11 01:34:17;;;;;;;8.65;5.35;;;;;;;;;;4997425;28;20050;-82
2022/04/11 01:36:44;;;;;;;10.52;5.72;;;;;;;;;;4996117;28;20050;-82
2022/04/11 01:39:12;;;;;;;8.30;4.80;;;;;;;;;;4996588;28;20117;-82
2022/04/11 01:41:39;;;;;;;7.18;4.85;;;;;;;;;;4995962;28;20050;-82
2022/04/11 01:44:06;;;;;;;9.80;5.35;;;;;;;;;;4995314;28;20054;-82
2022/04/11 01:46:33;;;;;;;8.13;4.97;;;;;;;;;;4995937;28;20050;-81
2022/04/11 01:49:00;;;;;;;7.70;5.22;;;;;;;;;;4996210;28;20042;-81
2022/04/11 01:51:27;;;;;;;9.82;5.20;;;;;;;;;;4996728;28;20050;-81
2022/04/11 01:53:53;;;;;;;9.65;5.68;;;;;;;;;;4996084;28;20046;-82
2022/04/11 01:56:21;;;;;;;8.73;4.78;;;;;;;;;;4995769;28;20058;-81
2022/04/11 01:58:48;;;;;;;7.80;5.20;;;;;;;;;;4998299;28;20112;-82
2022/04/11 02:01:18;;;;;;;12.00;5.25;;;;;;;;;;5000343;28;20054;-82
2022/04/11 02:03:45;;;;;;;7.80;4.68;;;;;;;;;;5001032;28;20133;-82
2022/04/11 02:06:12;;;;;;;8.18;5.25;;;;;;;;;;5000603;28;20113;-81
2022/04/11 02:08:38;;;;;;;8.38;4.63;;;;;;;;;;4999729;28;20445;-81
2022/04/11 02:11:05;;;;;;;8.95;5.35;;;;;;;;;;4999709;28;20465;-81
2022/04/11 02:13:34;;;;;;;8.02;4.63;;;;;;;;;;5000966;28;20065;-82
2022/04/11 02:16:00;;;;;;;7.13;4.18;;;;;;;;;;5000603;28;20436;-82
2022/04/11 02:18:28;;;;;;;8.30;4.55;;;;;;;;;;5014843;28;20061;-81
2022/04/11 02:20:54;;;;;;;7.97;4.57;;;;;;;;;;5018713;28;20042;-81
2022/04/11 02:23:21;;;;;;;8.82;4.97;;;;;;;;;;5019384;28;20046;-81
2022/04/11 02:25:48;;;;;;;8.13;5.28;;;;;;;;;;5018014;28;20492;-81
2022/04/11 02:28:15;;;;;;;13.57;6.75;;;;;;;;;;5011396;28;20469;-82
2022/04/11 02:30:43;;;;;;;11.45;6.45;;;;;;;;;;5002813;28;20042;-82
2022/04/11 02:33:10;;;;;;;11.95;6.25;;;;;;;;;;5002107;28;20106;-81
2022/04/11 02:35:37;;;;;;;8.98;5.25;;;;;;;;;;5002140;28;20445;-81
2022/04/11 02:38:04;;;;;;;9.77;5.10;;;;;;;;;;5001028;28;20575;-81
2022/04/11 02:40:30;;;;;;;10.68;5.00;;;;;;;;;;5000497;28;20085;-82
2022/04/11 02:42:57;;;;;;;9.32;5.68;;;;;;;;;;5003579;28;20482;-81
2022/04/11 02:45:24;;;;;;;8.00;5.00;;;;;;;;;;4997118;28;20060;-82
2022/04/11 02:47:52;;;;;;;9.43;5.10;;;;;;;;;;4982787;28;20050;-82
2022/04/11 02:50:19;;;;;;;8.75;4.65;;;;;;;;;;4981801;28;20051;-81
2022/04/11 02:52:46;;;;;;;6.30;3.75;;;;;;;;;;4980889;28;20522;-82
2022/04/11 02:55:13;;;;;;;7.97;4.60;;;;;;;;;;4981785;28;20059;-82
2022/04/11 02:57:40;;;;;;;8.20;4.50;;;;;;;;;;4981928;28;20051;-81
2022/04/11 03:00:10;;;;;;;7.88;5.32;;;;;;;;;;4981480;28;20043;-82
2022/04/11 03:02:36;;;;;;;9.05;4.90;;;;;;;;;;4981104;28;20061;-81
2022/04/11 03:05:05;;;;;;;10.93;4.82;;;;;;;;;;4980639;28;20057;-82
2022/04/11 03:07:32;;;;;;;8.35;4.78;;;;;;;;;;4981857;28;20109;-82
2022/04/11 03:09:59;;;;;;;11.55;5.55;;;;;;;;;;4981880;28;20054;-81
2022/04/11 03:12:27;;;;;;;9.68;5.47;;;;;;;;;;4981445;28;20061;-82
2022/04/11 03:14:53;;;;;;;10.00;6.28;;;;;;;;;;4979980;28;20109;-82
2022/04/11 03:17:20;;;;;;;10.20;5.63;;;;;;;;;;4978432;28;20074;-82
2022/04/11 03:19:47;;;;;;;8.70;5.18;;;;;;;;;;4977893;28;20051;-82
2022/04/11 03:22:15;;;;;;;8.70;5.10;;;;;;;;;;4977417;28;20054;-82
2022/04/11 03:24:42;;;;;;;10.73;5.05;;;;;;;;;;4977624;28;20090;-82
2022/04/11 03:27:09;;;;;;;8.55;5.75;;;;;;;;;;4976900;28;20055;-82
2022/04/11 03:29:36;;;;;;;12.65;5.53;;;;;;;;;;4981089;28;20051;-81
2022/04/11 03:32:03;;;;;;;10.73;5.68;;;;;;;;;;4994249;28;20041;-81
2022/04/11 03:34:30;;;;;;;9.43;4.72;;;;;;;;;;4998147;28;20046;-81
2022/04/11 03:36:56;;;;;;;11.18;4.90;;;;;;;;;;4986806;28;20059;-82
2022/04/11 03:39:25;;;;;;;8.73;4.68;;;;;;;;;;4977627;28;20047;-81
2022/04/11 03:41:51;;;;;;;8.52;4.88;;;;;;;;;;4976831;28;20430;-81
2022/04/11 03:44:18;;;;;;;8.98;4.68;;;;;;;;;;4977264;28;20494;-81
2022/04/11 03:46:45;;;;;;;8.20;4.45;;;;;;;;;;4994888;28;20105;-81
2022/04/11 03:49:12;;;;;;;10.85;4.88;;;;;;;;;;4996281;28;20050;-82
2022/04/11 03:51:38;;;;;;;6.72;4.30;;;;;;;;;;4996076;28;20461;-82
2022/04/11 03:54:05;;;;;;;7.32;4.43;;;;;;;;;;4996300;28;20046;-81
2022/04/11 03:56:33;;;;;;;8.30;4.45;;;;;;;;;;4997155;28;20069;-81
2022/04/11 03:59:00;;;;;;;9.05;4.82;;;;;;;;;;4996817;28;20568;-81
2022/04/11 04:01:27;;;;;;;7.63;4.88;;;;;;;;;;4996041;28;20492;-81
2022/04/11 04:03:54;;;;;;;8.07;4.38;;;;;;;;;;4996305;28;20117;-81
2022/04/11 04:06:21;;;;;;;8.35;4.57;;;;;;;;;;4995938;28;20046;-81
2022/04/11 04:08:47;;;;;;;10.15;4.93;;;;;;;;;;4996090;28;20054;-81
2022/04/11 04:11:14;;;;;;;7.25;4.32;;;;;;;;;;4995692;28;20510;-81
2022/04/11 04:13:43;;;;;;;9.98;4.68;;;;;;;;;;4995876;28;20133;-81
2022/04/11 04:16:09;;;;;;;9.82;5.00;;;;;;;;;;4996052;28;20050;-81
2022/04/11 04:18:36;;;;;;;8.05;4.70;;;;;;;;;;4995740;28;20046;-81
2022/04/11 04:21:03;;;;;;;6.90;4.70;;;;;;;;;;4996166;28;20054;-81
2022/04/11 04:23:30;;;;;;;7.85;4.90;;;;;;;;;;4996004;28;20050;-81
2022/04/11 04:25:57;;;;;;;7.85;5.05;;;;;;;;;;4995369;28;20104;-81
2022/04/11 04:28:24;;;;;;;11.10;5.13;;;;;;;;;;4996000;28;20089;-81
2022/04/11 04:30:52;;;;;;;8.07;4.88;;;;;;;;;;4996109;28;20112;-81
2022/04/11 04:33:18;;;;;;;7.72;4.72;;;;;;;;;;4995738;28;20410;-81
2022/04/11 04:35:45;;;;;;;9.43;4.47;;;;;;;;;;4995829;28;20054;-81
2022/04/11 04:38:12;;;;;;;7.70;4.13;;;;;;;;;;5000266;28;20054;-81
2022/04/11 04:40:39;;;;;;;9.60;5.13;;;;;;;;;;4997242;28;20050;-81
2022/04/11 04:43:06;;;;;;;7.25;4.03;;;;;;;;;;4997949;28;20391;-82
2022/04/11 04:45:33;;;;;;;8.65;4.47;;;;;;;;;;4998523;28;20046;-82
2022/04/11 04:48:01;;;;;;;7.72;4.10;;;;;;;;;;4999166;28;20046;-82
2022/04/11 04:50:28;;;;;;;7.50;4.28;;;;;;;;;;4998446;28;20493;-81
2022/04/11 04:52:54;;;;;;;9.65;4.88;;;;;;;;;;5000031;28;20066;-81
2022/04/11 04:55:22;;;;;;;8.10;4.00;;;;;;;;;;4997739;28;20124;-81
2022/04/11 04:57:49;;;;;;;7.07;4.72;;;;;;;;;;4997737;28;20057;-81
2022/04/11 05:00:16;;;;;;;8.15;4.03;;;;;;;;;;5004834;28;20046;-81
2022/04/11 05:02:43;;;;;;;7.78;3.50;;;;;;;;;;5008167;28;20042;-81
2022/04/11 05:05:13;;;;;;;6.35;4.10;;;;;;;;;;5001399;28;20133;-81
2022/04/11 05:07:40;;;;;;;6.53;3.85;;;;;;;;;;5005052;28;20050;-82
2022/04/11 05:10:08;;;;;;;7.00;3.83;;;;;;;;;;5006959;28;20050;-81
2022/04/11 05:12:42;;;;;;;6.20;3.72;;;;;;;;;;5000615;28;20086;-81
2022/04/11 05:15:10;;;;;;;6.68;3.63;;;;;;;;;;5000064;28;20057;-82
2022/04/11 05:17:37;;;;;;;7.40;3.85;;;;;;;;;;4996778;28;20065;-81
2022/04/11 05:20:06;;;;;;;7.03;3.92;;;;;;;;;;5003790;28;20042;-81
2022/04/11 05:22:34;;;;;;;7.30;3.97;;;;;;;;;;5006918;28;20053;-81
2022/04/11 05:25:01;;;;;;;7.15;3.83;;;;;;;;;;5009768;28;20042;-81
2022/04/11 05:27:28;;;;;;;7.90;3.58;;;;;;;;;;5003730;28;20477;-81
2022/04/11 05:29:55;;;;;;;8.27;4.32;;;;;;;;;;5000083;28;20057;-81
2022/04/11 05:35:43;;;;;;;10.95;4.00;;;;;;;;;;4997956;28;20540;-82
2022/04/11 05:38:14;;;;;;;9.07;4.20;;;;;;;;;;4999093;28;20077;-81
2022/04/11 05:40:40;;;;;;;7.60;3.83;;;;;;;;;;5009513;28;20043;-81
2022/04/11 05:46:29;;;;;;;7.28;3.83;;;;;;;;;;5002884;28;20053;-81
2022/04/11 05:52:18;;;;;;;5.95;3.63;;;;;;;;;;4995749;28;20069;-83
2022/04/11 05:54:47;;;;;;;8.85;4.10;;;;;;;;;;4996544;28;20093;-82
2022/04/11 05:57:14;;;;;;;8.23;3.67;;;;;;;;;;4996378;28;20046;-82
2022/04/11 05:59:40;;;;;;;7.38;3.58;;;;;;;;;;4996110;28;20078;-81
2022/04/11 06:02:09;;;;;;;7.90;4.10;;;;;;;;;;4995957;28;20046;-82
2022/04/11 06:04:37;;;;;;;7.80;4.40;;;;;;;;;;4995754;28;20065;-82
2022/04/11 06:07:04;;;;;;;7.57;4.13;;;;;;;;;;4997983;28;20070;-82
2022/04/11 06:09:31;;;;;;;7.78;3.80;;;;;;;;;;5001839;28;20051;-82
2022/04/11 06:11:59;;;;;;;9.27;3.97;;;;;;;;;;5002910;28;20042;-83
2022/04/11 06:17:50;;;;;;;7.88;4.28;;;;;;;;;;4998026;28;20045;-82
2022/04/11 06:20:29;;;;;;;7.80;4.82;;;;;;;;;;4998528;28;20053;-82
2022/04/11 06:22:56;;;;;;;9.60;4.50;;;;;;;;;;4999513;28;20144;-82
2022/04/11 06:25:29;;;;;;;5.82;3.55;;;;;;;;;;4999351;28;20073;-83
2022/04/11 06:27:57;;;;;;;7.43;3.65;;;;;;;;;;4999498;28;20054;-82
2022/04/11 06:30:24;;;;;;;6.30;3.97;;;;;;;;;;4999631;28;20410;-81
2022/04/11 06:36:13;;;;;;;5.45;3.72;;;;;;;;;;5006990;28;20177;-82
2022/04/11 06:39:30;;;;;;;7.47;3.97;;;;;;;;;;5008399;28;20057;-82
2022/04/11 06:45:20;;;;;;;6.57;3.72;;;;;;;;;;5005965;28;20049;-82
2022/04/11 06:51:09;;;;;;;6.47;3.58;;;;;;;;;;5009576;28;20061;-82
2022/04/11 06:53:35;;;;;;;6.78;4.45;;;;;;;;;;5009136;28;20080;-81
2022/04/11 06:56:02;;;;;;;7.35;4.22;;;;;;;;;;5010304;28;20081;-82
2022/04/11 06:58:29;;;;;;;7.00;4.00;;;;;;;;;;5007277;28;20082;-82
2022/04/11 07:00:57;;;;;;;8.55;3.80;;;;;;;;;;5004828;28;20042;-81
2022/04/11 07:03:24;;;;;;;5.85;3.65;;;;;;;;;;5004991;28;20046;-82
2022/04/11 07:05:51;;;;;;;7.80;4.28;;;;;;;;;;5018087;28;20066;-81
2022/04/11 07:08:17;;;;;;;5.97;3.78;;;;;;;;;;5020517;28;20083;-81
2022/04/11 07:10:45;;;;;;;6.55;4.03;;;;;;;;;;5018060;28;20038;-79
2022/04/11 07:13:11;;;;;;;7.15;4.00;;;;;;;;;;5016914;28;20093;-79
2022/04/11 07:15:38;;;;;;;8.35;4.50;;;;;;;;;;5011890;28;20050;-81
2022/04/11 07:18:07;;;;;;;7.97;4.65;;;;;;;;;;5004254;28;20049;-81
2022/04/11 07:20:33;;;;;;;20.98;11.40;;;;;;;;;;4998545;28;20086;-80
2022/04/11 07:23:00;;;;;;;12.13;6.63;;;;;;;;;;4997844;28;20042;-80
2022/04/11 07:25:28;;;;;;;10.25;5.15;;;;;;;;;;4997917;28;20085;-82
2022/04/11 07:27:55;;;;;;;5.90;3.90;;;;;;;;;;5000064;28;20054;-80
2022/04/11 07:30:22;;;;;;;6.40;3.90;;;;;;;;;;5000733;28;20133;-81
2022/04/11 07:32:49;;;;;;;6.85;3.85;;;;;;;;;;4996989;28;20047;-82
2022/04/11 07:35:18;;;;;;;7.20;3.95;;;;;;;;;;4997992;28;20042;-81
2022/04/11 07:37:44;;;;;;;6.03;3.63;;;;;;;;;;4997845;28;20133;-81
2022/04/11 07:40:13;;;;;;;7.20;4.18;;;;;;;;;;4995484;28;20053;-82
2022/04/11 07:42:39;;;;;;;6.53;4.30;;;;;;;;;;4997319;28;20201;-82
2022/04/11 07:45:07;;;;;;;6.78;3.80;;;;;;;;;;4998050;28;20042;-82
2022/04/11 07:47:34;;;;;;;6.88;3.85;;;;;;;;;;4999993;28;20151;-82
2022/04/11 07:50:02;;;;;;;6.45;4.20;;;;;;;;;;5001605;28;20101;-80
2022/04/11 07:52:30;;;;;;;8.40;4.60;;;;;;;;;;5018291;28;20061;-81
2022/04/11 07:54:57;;;;;;;7.78;4.90;;;;;;;;;;5014468;28;20107;-80
2022/04/11 07:57:24;;;;;;;6.75;4.35;;;;;;;;;;5003275;28;20055;-80
2022/04/11 07:59:51;;;;;;;6.95;4.10;;;;;;;;;;5002669;28;20046;-79
2022/04/11 08:02:24;;;;;;;10.85;4.68;;;;;;;;;;5000837;28;20050;-80
2022/04/11 08:04:50;;;;;;;7.85;4.35;;;;;;;;;;5004504;28;20051;-80
2022/04/11 08:07:17;;;;;;;5.95;4.03;;;;;;;;;;5008807;28;20058;-80
2022/04/11 08:09:45;;;;;;;7.28;4.47;;;;;;;;;;5005375;28;20050;-80
2022/04/11 08:12:12;;;;;;;6.53;3.95;;;;;;;;;;4999735;28;20049;-80
2022/04/11 08:14:39;;;;;;;6.03;3.53;;;;;;;;;;4999958;28;20053;-80
2022/04/11 08:17:05;;;;;;;7.35;4.45;;;;;;;;;;5001286;28;20046;-80
2022/04/11 08:19:32;;;;;;;9.10;4.15;;;;;;;;;;5001181;28;20556;-81
2022/04/11 08:21:59;;;;;;;6.28;3.83;;;;;;;;;;5002368;28;20078;-81
2022/04/11 08:24:26;;;;;;;7.75;4.55;;;;;;;;;;5002195;28;20050;-81
2022/04/11 08:26:54;;;;;;;7.85;4.50;;;;;;;;;;5001600;28;20058;-81
2022/04/11 08:29:21;;;;;;;10.05;5.10;;;;;;;;;;5009423;28;20052;-80
2022/04/11 08:31:48;;;;;;;9.38;4.60;;;;;;;;;;5007600;28;20058;-80
2022/04/11 08:34:15;;;;;;;8.57;4.53;;;;;;;;;;5002234;28;20066;-81
2022/04/11 08:36:43;;;;;;;7.22;4.55;;;;;;;;;;5000074;28;20046;-80
2022/04/11 08:39:10;;;;;;;6.72;4.60;;;;;;;;;;5000465;28;20102;-80
2022/04/11 08:45:01;;;;;;;5.88;4.00;;;;;;;;;;4997352;28;20064;-80
2022/04/11 08:47:28;;;;;;;5.55;3.97;;;;;;;;;;4999539;28;20054;-81
2022/04/11 08:49:56;;;;;;;7.07;4.53;;;;;;;;;;4997423;28;20081;-81
2022/04/11 08:52:23;;;;;;;6.20;3.97;;;;;;;;;;4999631;28;20096;-81
2022/04/11 08:54:50;;;;;;;6.13;3.83;;;;;;;;;;4999901;28;20097;-80
2022/04/11 08:57:17;;;;;;;5.70;3.33;;;;;;;;;;4999099;28;20082;-81
2022/04/11 08:59:44;;;;;;;8.98;3.63;;;;;;;;;;4999595;28;20053;-81
2022/04/11 09:02:12;;;;;;;6.25;4.15;;;;;;;;;;5002711;28;20414;-81
2022/04/11 09:04:51;;;;;;;7.80;4.50;;;;;;;;;;5002220;28;20046;-81
2022/04/11 09:07:18;;;;;;;7.40;3.97;;;;;;;;;;4999719;28;20050;-81
2022/04/11 09:09:45;;;;;;;6.40;3.58;;;;;;;;;;4998652;28;20054;-81
2022/04/11 09:12:14;;;;;;;7.78;4.03;;;;;;;;;;4998337;28;20046;-81
2022/04/11 09:14:42;;;;;;;5.10;3.08;;;;;;;;;;4999579;28;20046;-82
2022/04/11 09:17:09;;;;;;;6.47;3.63;;;;;;;;;;4999195;28;20640;-80
2022/04/11 09:19:38;;;;;;;6.45;3.47;;;;;;;;;;5000190;28;20109;-82
2022/04/11 09:22:05;;;;;;;7.93;3.22;;;;;;;;;;5000061;28;20053;-81
2022/04/11 09:24:32;;;;;;;6.05;3.42;;;;;;;;;;4999464;28;20058;-81
2022/04/11 09:27:00;;;;;;;9.70;4.47;;;;;;;;;;4999308;28;20077;-82
2022/04/11 09:29:28;;;;;;;4.88;3.45;;;;;;;;;;4998488;28;20050;-81
2022/04/11 09:32:02;;;;;;;6.65;3.22;;;;;;;;;;5001297;28;20452;-81
2022/04/11 09:34:30;;;;;;;6.45;3.17;;;;;;;;;;5005296;28;20271;-81
2022/04/11 09:37:00;;;;;;;6.80;4.10;;;;;;;;;;5007816;28;20080;-80
2022/04/11 09:39:28;;;;;;;6.03;3.50;;;;;;;;;;5008101;28;20117;-80
2022/04/11 09:41:55;;;;;;;5.97;3.13;;;;;;;;;;5007629;28;20050;-81
2022/04/11 09:44:23;;;;;;;6.40;3.10;;;;;;;;;;5007655;28;20046;-80
2022/04/11 09:46:50;;;;;;;5.47;3.05;;;;;;;;;;5003110;28;20046;-80
2022/04/11 09:49:18;;;;;;;6.00;4.82;;;;;;;;;;5001185;28;20054;-81
2022/04/11 09:52:09;;;;;;;5.38;3.53;;;;;;;;;;4999916;28;20445;-81
2022/04/11 09:54:38;;;;;;;6.47;3.17;;;;;;;;;;5001573;28;20114;-82
2022/04/11 09:57:06;;;;;;;4.97;3.33;;;;;;;;;;5000990;28;20482;-81
2022/04/11 09:59:33;;;;;;;4.63;2.38;;;;;;;;;;5000548;28;20047;-81
2022/04/11 10:02:00;;;;;;;5.70;3.30;;;;;;;;;;4999579;28;20051;-81
2022/04/11 10:04:28;;;;;;;6.45;3.40;;;;;;;;;;4998584;28;20050;-81
2022/04/11 10:06:56;;;;;;;7.25;4.18;;;;;;;;;;4998625;28;20054;-80
2022/04/11 10:09:24;;;;;;;7.82;4.75;;;;;;;;;;4998773;28;20113;-81
2022/04/11 10:11:53;;;;;;;8.77;3.90;;;;;;;;;;4999219;28;20050;-82
2022/04/11 10:14:25;;;;;;;5.03;3.40;;;;;;;;;;4998641;28;20049;-81
2022/04/11 10:16:55;;;;;;;5.65;3.10;;;;;;;;;;4999203;28;20057;-80
2022/04/11 10:19:28;;;;;;;6.07;3.97;;;;;;;;;;4999128;28;20110;-81
2022/04/11 10:21:58;;;;;;;6.97;3.28;;;;;;;;;;4998849;28;20494;-81
2022/04/11 10:24:36;;;;;;;;;;;;;;;;;;5002571;28;20419;-83
2022/04/11 10:27:18;;;;;;;6.03;3.70;;;;;;;;;;5000167;28;19921;-82
2022/04/11 10:29:46;;;;;;;7.47;4.95;;;;;;;;;;5003392;28;20062;-80
2022/04/11 10:32:14;;;;;;;6.90;4.10;;;;;;;;;;5008596;28;20088;-80
2022/04/11 10:34:49;;;;;;;9.85;4.47;;;;;;;;;;5018799;28;20027;-80
2022/04/11 10:37:16;;;;;;;6.00;3.78;;;;;;;;;;5011611;28;20050;-79
2022/04/11 10:39:45;;;;;;;6.78;3.90;;;;;;;;;;5000117;28;20077;-79
2022/04/11 10:42:14;;;;;;;6.30;3.75;;;;;;;;;;5001663;28;20042;-81
2022/04/11 10:44:43;;;;;;;5.13;3.50;;;;;;;;;;5016543;23;20089;-64
2022/04/11 10:47:31;;;;;;;8.13;4.60;;;;;;;;;;4975203;28;20515;-65
2022/04/11 10:50:27;;;;;;;6.15;3.20;;;;;;;;;;4974742;28;20070;-61
2022/04/11 10:53:11;;;;;;;9.48;5.13;;;;;;;;;;4975599;28;20086;-61
2022/04/11 10:58:47;;;;;;;7.18;4.13;;;;;;;;;;5129297;27;20383;-60
2022/04/11 11:01:15;;;;;;;6.28;3.55;;;;;;;;;;5129269;28;20043;-62
2022/04/11 11:03:59;;;;;;;5.60;3.08;;;;;;;;;;5129478;27;20415;-62
2022/04/11 11:06:26;;;;;;;5.15;3.35;;;;;;;;;;5130113;28;20343;-61
2022/04/11 11:08:53;;;;;;;4.97;3.25;;;;;;;;;;5129526;28;20082;-61
2022/04/11 11:11:28;;;;;;;5.43;3.53;;;;;;;;;;5129524;28;20058;-61
2022/04/11 11:14:36;;;;;;;5.95;3.33;;;;;;;;;;5129563;28;20050;-61
2022/04/11 11:17:05;;;;;;;7.20;3.95;;;;;;;;;;5108500;28;20054;-61
2022/04/11 11:19:33;;;;;;;8.13;4.47;;;;;;;;;;5108321;28;20076;-61
2022/04/11 11:22:05;;;;;;;9.70;3.90;;;;;;;;;;5108329;28;20318;-61
2022/04/11 11:24:32;;;;;;;7.35;4.60;;;;;;;;;;5108602;28;20090;-61
2022/04/11 11:27:03;;;;;;;10.95;6.32;;;;;;;;;;5108070;28;20056;-61
2022/04/11 11:29:32;;;;;;;8.93;5.47;;;;;;;;;;5107953;28;20051;-61
2022/04/11 11:35:34;;;;;;;8.20;4.35;;;;;;;;;;5107902;28;20043;-61
2022/04/11 11:38:03;;;;;;;5.93;3.85;;;;;;;;;;5107447;28;20047;-61
2022/04/11 11:40:30;;;;;;;5.53;3.60;;;;;;;;;;5107901;28;20044;-61
2022/04/11 11:42:57;;;;;;;6.07;4.38;;;;;;;;;;5107575;28;20052;-61
2022/04/11 11:45:27;;;;;;;6.55;3.30;;;;;;;;;;5107582;28;20055;-61
2022/04/11 11:51:18;;;;;;;7.53;4.13;;;;;;;;;;5107112;28;20088;-61
2022/04/11 11:53:51;;;;;;;5.95;3.17;;;;;;;;;;5107912;28;20047;-61
2022/04/11 11:56:18;;;;;;;6.75;2.92;;;;;;;;;;5114346;28;20054;-61
2022/04/11 11:58:46;;;;;;;5.63;3.60;;;;;;;;;;5127832;28;20058;-61
2022/04/11 12:01:14;;;;;;;5.53;3.85;;;;;;;;;;5127930;28;20059;-61
2022/04/11 12:06:32;;;;;;;5.88;3.38;;;;;;;;;;5128036;28;20074;-62
2022/04/11 12:09:01;;;;;;;6.75;3.63;;;;;;;;;;5118846;28;20052;-61
2022/04/11 12:11:30;;;;;;;7.13;3.30;;;;;;;;;;5113920;28;20484;-61
2022/04/11 12:14:01;;;;;;;6.70;3.33;;;;;;;;;;5114104;28;20080;-61
2022/04/11 12:16:29;;;;;;;4.72;2.95;;;;;;;;;;5113760;28;20055;-61
2022/04/11 12:18:58;;;;;;;5.80;3.47;;;;;;;;;;5113527;28;20415;-65
2022/04/11 12:21:40;;;;;;;4.75;3.13;;;;;;;;;;5113096;28;20055;-62
2022/04/11 12:24:09;;;;;;;5.20;3.15;;;;;;;;;;5092460;28;20058;-62
2022/04/11 12:26:38;;;;;;;8.32;4.10;;;;;;;;;;5098251;28;20087;-62
2022/04/11 12:29:10;;;;;;;5.57;3.20;;;;;;;;;;5113612;28;20056;-65
2022/04/11 12:31:37;;;;;;;7.05;3.22;;;;;;;;;;5113493;28;20058;-62
2022/04/11 12:34:11;;;;;;;5.55;3.55;;;;;;;;;;5113714;28;20531;-62
2022/04/11 12:36:58;;;;;;;6.43;3.33;;;;;;;;;;5113497;28;20054;-63
2022/04/11 12:42:48;;;;;;;7.60;3.00;;;;;;;;;;5097701;28;20101;-61
2022/04/11 12:45:16;;;;;;;5.13;3.38;;;;;;;;;;5092712;28;20071;-61
2022/04/11 12:48:04;;;;;;;4.82;2.80;;;;;;;;;;5092823;28;20365;-61
2022/04/11 12:50:32;;;;;;;4.90;3.05;;;;;;;;;;5092723;28;20436;-63
2022/04/11 12:56:12;;;;;;;6.50;3.30;;;;;;;;;;5617574;23;20088;-79
2022/04/11 12:58:39;;;;;;;7.03;3.17;;;;;;;;;;5037718;28;20641;-82
2022/04/11 13:01:06;;;;;;;8.70;3.40;;;;;;;;;;5054838;28;20706;-79
2022/04/11 13:03:32;;;;;;;6.40;3.22;;;;;;;;;;5050838;28;20103;-78
2022/04/11 13:05:59;;;;;;;5.18;3.28;;;;;;;;;;5043767;28;20107;-78
2022/04/11 13:08:26;;;;;;;5.65;3.25;;;;;;;;;;5051102;22;20139;-79
2022/04/11 13:10:55;;;;;;;5.60;2.78;;;;;;;;;;5013339;28;20100;-78
2022/04/11 13:19:29;;;;;;;5.72;2.95;;;;;;;;;;5018541;28;20060;-78
2022/04/11 13:21:56;;;;;;;4.90;2.72;;;;;;;;;;4994354;28;20050;-78
2022/04/11 13:24:23;;;;;;;6.03;2.97;;;;;;;;;;4993744;28;20100;-77
2022/04/11 13:26:50;;;;;;;5.13;3.10;;;;;;;;;;4992965;28;20058;-77
2022/04/11 13:29:17;;;;;;;5.00;2.67;;;;;;;;;;4993093;28;20101;-77
2022/04/11 13:31:45;;;;;;;4.93;2.58;;;;;;;;;;4993536;28;20130;-77
2022/04/11 13:34:12;;;;;;;5.60;3.30;;;;;;;;;;4993165;28;20092;-77
2022/04/11 13:36:39;;;;;;;6.18;2.63;;;;;;;;;;4992877;28;20061;-77
2022/04/11 13:39:06;;;;;;;4.50;2.30;;;;;;;;;;4993036;28;20046;-77
2022/04/11 13:41:33;;;;;;;5.05;2.70;;;;;;;;;;4992058;28;20081;-77
2022/04/11 13:44:01;;;;;;;5.38;2.83;;;;;;;;;;4992090;28;20046;-77
2022/04/11 13:46:30;;;;;;;4.22;2.50;;;;;;;;;;4992346;28;20108;-77
2022/04/11 13:48:58;;;;;;;4.30;2.67;;;;;;;;;;4992178;28;20082;-77
2022/04/11 13:51:26;;;;;;;4.50;2.50;;;;;;;;;;4993067;28;20374;-78
2022/04/11 13:53:55;;;;;;;7.00;3.38;;;;;;;;;;4994844;28;20113;-78
2022/04/11 13:56:22;;;;;;;8.25;3.20;;;;;;;;;;4994376;28;20519;-78
2022/04/11 13:58:49;;;;;;;5.47;2.60;;;;;;;;;;4993722;28;20051;-78
2022/04/11 14:01:17;;;;;;;5.10;2.58;;;;;;;;;;4993313;28;20046;-77
2022/04/11 14:03:44;;;;;;;5.53;2.65;;;;;;;;;;4992690;28;20489;-77
2022/04/11 14:06:15;;;;;;;4.47;2.70;;;;;;;;;;4991486;28;20497;-77
2022/04/11 14:08:42;;;;;;;5.43;2.70;;;;;;;;;;4992332;28;20054;-77
2022/04/11 14:11:09;;;;;;;6.75;2.78;;;;;;;;;;4992354;28;20464;-77
2022/04/11 14:13:37;;;;;;;4.63;2.95;;;;;;;;;;4991939;28;20050;-78
2022/04/11 14:16:04;;;;;;;4.07;2.13;;;;;;;;;;4991306;28;20062;-78
2022/04/11 14:18:31;;;;;;;4.88;2.90;;;;;;;;;;4992333;28;20069;-78
2022/04/11 14:20:58;;;;;;;4.60;2.60;;;;;;;;;;4992480;28;20074;-78
2022/04/11 14:23:28;;;;;;;3.90;2.25;;;;;;;;;;4991940;28;20108;-78
2022/04/11 14:25:55;;;;;;;4.30;2.53;;;;;;;;;;4991079;28;20073;-78
2022/04/11 14:28:22;;;;;;;5.13;2.67;;;;;;;;;;4991463;28;20498;-78
2022/04/11 14:30:49;;;;;;;5.28;2.60;;;;;;;;;;4991654;28;20502;-78
2022/04/11 14:33:17;;;;;;;4.85;2.80;;;;;;;;;;4991966;28;20050;-78
2022/04/11 14:35:45;;;;;;;5.55;3.05;;;;;;;;;;4992074;28;20089;-77
2022/04/11 14:38:12;;;;;;;5.93;3.03;;;;;;;;;;4991582;28;20053;-78
2022/04/11 14:40:42;;;;;;;4.72;2.80;;;;;;;;;;4991523;28;20046;-78
2022/04/11 14:43:09;;;;;;;6.97;4.00;;;;;;;;;;4991559;28;20501;-78
2022/04/11 14:45:37;;;;;;;5.22;3.28;;;;;;;;;;4991372;28;20042;-78
2022/04/11 14:48:04;;;;;;;6.45;3.20;;;;;;;;;;4992624;28;20046;-76
2022/04/11 14:50:31;;;;;;;9.48;3.30;;;;;;;;;;4992737;28;20404;-77
2022/04/11 14:52:58;;;;;;;4.78;3.00;;;;;;;;;;4993124;28;20050;-77
2022/04/11 14:55:25;;;;;;;4.85;3.15;;;;;;;;;;4992375;28;20054;-77
2022/04/11 14:57:53;;;;;;;7.47;4.93;;;;;;;;;;4992482;28;20571;-77
2022/04/11 15:00:20;;;;;;;5.28;3.25;;;;;;;;;;4993154;28;20105;-78
2022/04/11 15:02:48;;;;;;;7.22;3.90;;;;;;;;;;4995424;28;20058;-77
2022/04/11 15:05:14;;;;;;;6.70;3.20;;;;;;;;;;4993275;28;20047;-78
2022/04/11 15:07:42;;;;;;;6.53;3.10;;;;;;;;;;4995160;28;20054;-78
2022/04/11 15:10:09;;;;;;;4.55;2.42;;;;;;;;;;4997706;28;20121;-78
2022/04/11 15:12:36;;;;;;;5.32;2.78;;;;;;;;;;5012305;28;20104;-78
2022/04/11 15:15:05;;;;;;;6.60;2.78;;;;;;;;;;5014507;28;20050;-77
2022/04/11 15:17:32;;;;;;;6.40;3.33;;;;;;;;;;4997204;28;20060;-77
2022/04/11 15:19:59;;;;;;;5.47;3.45;;;;;;;;;;4992671;28;20050;-77
2022/04/11 15:22:29;;;;;;;5.30;3.10;;;;;;;;;;4991157;28;20456;-77
2022/04/11 15:24:56;;;;;;;7.53;3.88;;;;;;;;;;4991125;28;20055;-77
2022/04/11 15:27:23;;;;;;;4.72;2.95;;;;;;;;;;4990975;28;20074;-77
2022/04/11 15:29:50;;;;;;;5.35;2.95;;;;;;;;;;4990955;28;20548;-77
2022/04/11 15:32:18;;;;;;;6.20;3.40;;;;;;;;;;4990682;28;20085;-77
2022/04/11 15:34:47;;;;;;;5.40;3.15;;;;;;;;;;4991836;28;20042;-79
2022/04/11 15:37:14;;;;;;;4.88;2.92;;;;;;;;;;4992960;28;20474;-79
2022/04/11 15:39:41;;;;;;;5.45;2.92;;;;;;;;;;4992851;28;20051;-79
2022/04/11 15:42:09;;;;;;;4.95;2.88;;;;;;;;;;4993271;28;20129;-78